sensor_id;sensor_type;location;lat;lon;timestamp;pressure;altitude;pressure_sealevel;temperature;humidity
13027;BME280;6580;42.680;23.324;2023-04-19T00:02:27;94868.28;;;11.71;100.00
13027;BME280;6580;42.680;23.324;2023-04-19T00:05:14;94862.78;;;11.73;100.00
13027;BME280;6580;42.680;23.324;2023-04-19T00:08:09;94864.25;;;11.75;100.00
13027;BME280;6580;42.680;23.324;2023-04-19T00:10:55;94865.50;;;11.95;100.00
13027;BME280;6580;42.680;23.324;2023-04-19T00:13:40;94867.53;;;11.85;100.00
13027;BME280;6580;42.680;23.324;2023-04-19T00:16:27;94870.19;;;11.85;100.00
13027;BME280;6580;42.680;23.324;2023-04-19T00:19:13;94861.75;;;11.74;100.00
13027;BME280;6580;42.680;23.324;2023-04-19T00:21:58;94858.94;;;11.67;100.00
13027;BME280;6580;42.680;23.324;2023-04-19T00:24:44;94861.81;;;11.58;100.00
13027;BME280;6580;42.680;23.324;2023-04-19T00:27:29;94856.28;;;11.67;100.00
13027;BME280;6580;42.680;23.324;2023-04-19T00:30:15;94857.94;;;11.68;100.00
13027;BME280;6580;42.680;23.324;2023-04-19T00:33:09;94852.31;;;11.63;100.00
13027;BME280;6580;42.680;23.324;2023-04-19T00:35:57;94858.44;;;11.72;100.00
13027;BME280;6580;42.680;23.324;2023-04-19T00:38:42;94856.56;;;11.80;100.00
13027;BME280;6580;42.680;23.324;2023-04-19T00:41:29;94851.75;;;11.76;100.00
13027;BME280;6580;42.680;23.324;2023-04-19T00:44:15;94843.91;;;11.82;100.00
13027;BME280;6580;42.680;23.324;2023-04-19T00:47:01;94848.72;;;11.79;100.00
13027;BME280;6580;42.680;23.324;2023-04-19T00:49:48;94851.19;;;11.88;100.00
13027;BME280;6580;42.680;23.324;2023-04-19T00:52:34;94838.25;;;11.77;100.00
13027;BME280;6580;42.680;23.324;2023-04-19T00:55:20;94843.72;;;11.84;100.00
13027;BME280;6580;42.680;23.324;2023-04-19T00:58:08;94848.59;;;11.72;100.00
13027;BME280;6580;42.680;23.324;2023-04-19T01:00:53;94840.19;;;11.83;100.00
13027;BME280;6580;42.680;23.324;2023-04-19T01:03:39;94839.91;;;11.78;100.00
13027;BME280;6580;42.680;23.324;2023-04-19T01:06:25;94839.31;;;11.60;100.00
13027;BME280;6580;42.680;23.324;2023-04-19T01:09:12;94841.00;;;11.53;100.00
13027;BME280;6580;42.680;23.324;2023-04-19T01:11:58;94833.88;;;11.54;100.00
13027;BME280;6580;42.680;23.324;2023-04-19T01:14:45;94831.00;;;11.63;100.00
13027;BME280;6580;42.680;23.324;2023-04-19T01:17:31;94827.31;;;11.64;100.00
13027;BME280;6580;42.680;23.324;2023-04-19T01:20:17;94830.59;;;11.74;100.00
13027;BME280;6580;42.680;23.324;2023-04-19T01:23:05;94840.47;;;11.66;100.00
13027;BME280;6580;42.680;23.324;2023-04-19T01:25:54;94841.13;;;11.68;100.00
13027;BME280;6580;42.680;23.324;2023-04-19T01:28:39;94840.66;;;11.56;100.00
13027;BME280;6580;42.680;23.324;2023-04-19T01:31:26;94839.28;;;11.68;100.00
13027;BME280;6580;42.680;23.324;2023-04-19T01:34:11;94832.78;;;11.71;100.00
13027;BME280;6580;42.680;23.324;2023-04-19T01:36:57;94835.47;;;11.63;100.00
13027;BME280;6580;42.680;23.324;2023-04-19T01:39:45;94837.31;;;11.62;100.00
13027;BME280;6580;42.680;23.324;2023-04-19T01:42:31;94833.34;;;11.58;100.00
13027;BME280;6580;42.680;23.324;2023-04-19T01:45:16;94823.47;;;11.59;100.00
13027;BME280;6580;42.680;23.324;2023-04-19T01:48:01;94833.03;;;11.84;100.00
13027;BME280;6580;42.680;23.324;2023-04-19T01:50:49;94822.91;;;11.79;100.00
13027;BME280;6580;42.680;23.324;2023-04-19T01:53:34;94831.84;;;11.86;100.00
13027;BME280;6580;42.680;23.324;2023-04-19T01:56:21;94834.50;;;11.56;100.00
13027;BME280;6580;42.680;23.324;2023-04-19T01:59:07;94836.00;;;11.58;100.00
13027;BME280;6580;42.680;23.324;2023-04-19T02:01:55;94827.66;;;11.61;100.00
13027;BME280;6580;42.680;23.324;2023-04-19T02:04:41;94824.81;;;11.63;100.00
13027;BME280;6580;42.680;23.324;2023-04-19T02:07:27;94826.69;;;11.46;100.00
13027;BME280;6580;42.680;23.324;2023-04-19T02:10:14;94834.03;;;11.36;100.00
13027;BME280;6580;42.680;23.324;2023-04-19T02:13:00;94832.50;;;11.50;100.00
13027;BME280;6580;42.680;23.324;2023-04-19T02:15:46;94819.41;;;11.32;100.00
13027;BME280;6580;42.680;23.324;2023-04-19T02:18:32;94822.44;;;11.13;100.00
13027;BME280;6580;42.680;23.324;2023-04-19T02:21:18;94833.28;;;11.12;100.00
13027;BME280;6580;42.680;23.324;2023-04-19T02:24:06;94831.84;;;11.40;100.00
13027;BME280;6580;42.680;23.324;2023-04-19T02:26:51;94831.06;;;11.31;100.00
13027;BME280;6580;42.680;23.324;2023-04-19T02:29:38;94827.72;;;11.29;100.00
13027;BME280;6580;42.680;23.324;2023-04-19T02:32:23;94824.38;;;11.35;100.00
13027;BME280;6580;42.680;23.324;2023-04-19T02:35:11;94799.25;;;11.30;100.00
13027;BME280;6580;42.680;23.324;2023-04-19T02:37:56;94831.59;;;11.27;100.00
13027;BME280;6580;42.680;23.324;2023-04-19T02:40:44;94819.56;;;11.31;100.00
13027;BME280;6580;42.680;23.324;2023-04-19T02:43:30;94825.63;;;11.17;100.00
13027;BME280;6580;42.680;23.324;2023-04-19T02:46:18;94824.44;;;11.27;100.00
13027;BME280;6580;42.680;23.324;2023-04-19T02:49:03;94817.78;;;11.23;100.00
13027;BME280;6580;42.680;23.324;2023-04-19T02:51:50;94823.63;;;11.11;100.00
13027;BME280;6580;42.680;23.324;2023-04-19T02:54:35;94824.63;;;11.18;100.00
13027;BME280;6580;42.680;23.324;2023-04-19T02:57:21;94826.13;;;11.12;100.00
13027;BME280;6580;42.680;23.324;2023-04-19T03:00:07;94821.84;;;10.96;100.00
13027;BME280;6580;42.680;23.324;2023-04-19T03:02:54;94823.44;;;11.12;100.00
13027;BME280;6580;42.680;23.324;2023-04-19T03:05:40;94822.16;;;11.09;100.00
13027;BME280;6580;42.680;23.324;2023-04-19T03:08:27;94826.50;;;11.02;100.00
13027;BME280;6580;42.680;23.324;2023-04-19T03:11:14;94817.84;;;11.00;100.00
13027;BME280;6580;42.680;23.324;2023-04-19T03:13:59;94823.59;;;11.27;100.00
13027;BME280;6580;42.680;23.324;2023-04-19T03:16:45;94815.84;;;11.02;100.00
13027;BME280;6580;42.680;23.324;2023-04-19T03:19:33;94829.53;;;10.91;100.00
13027;BME280;6580;42.680;23.324;2023-04-19T03:22:24;94821.53;;;10.91;100.00
13027;BME280;6580;42.680;23.324;2023-04-19T03:25:10;94823.53;;;10.81;100.00
13027;BME280;6580;42.680;23.324;2023-04-19T03:27:57;94820.16;;;11.03;100.00
13027;BME280;6580;42.680;23.324;2023-04-19T03:30:45;94819.16;;;10.96;100.00
13027;BME280;6580;42.680;23.324;2023-04-19T03:33:34;94820.19;;;10.87;100.00
13027;BME280;6580;42.680;23.324;2023-04-19T03:36:20;94825.19;;;10.90;100.00
13027;BME280;6580;42.680;23.324;2023-04-19T03:39:06;94825.69;;;10.85;100.00
13027;BME280;6580;42.680;23.324;2023-04-19T03:41:51;94818.50;;;10.94;100.00
13027;BME280;6580;42.680;23.324;2023-04-19T03:44:37;94816.22;;;10.75;100.00
13027;BME280;6580;42.680;23.324;2023-04-19T03:47:22;94826.88;;;10.83;100.00
13027;BME280;6580;42.680;23.324;2023-04-19T03:50:08;94828.72;;;10.74;100.00
13027;BME280;6580;42.680;23.324;2023-04-19T03:52:56;94809.41;;;10.80;100.00
13027;BME280;6580;42.680;23.324;2023-04-19T03:55:42;94816.06;;;10.76;100.00
13027;BME280;6580;42.680;23.324;2023-04-19T03:58:27;94817.69;;;10.85;100.00
13027;BME280;6580;42.680;23.324;2023-04-19T04:01:17;94814.84;;;10.95;100.00
13027;BME280;6580;42.680;23.324;2023-04-19T04:04:03;94815.22;;;10.92;100.00
13027;BME280;6580;42.680;23.324;2023-04-19T04:06:53;94819.19;;;10.88;100.00
13027;BME280;6580;42.680;23.324;2023-04-19T04:09:42;94822.34;;;10.91;100.00
13027;BME280;6580;42.680;23.324;2023-04-19T04:12:28;94816.50;;;11.04;100.00
13027;BME280;6580;42.680;23.324;2023-04-19T04:15:15;94822.16;;;11.01;100.00
13027;BME280;6580;42.680;23.324;2023-04-19T04:18:01;94830.84;;;10.87;100.00
13027;BME280;6580;42.680;23.324;2023-04-19T04:20:46;94832.19;;;10.75;100.00
13027;BME280;6580;42.680;23.324;2023-04-19T04:23:32;94832.19;;;10.75;100.00
13027;BME280;6580;42.680;23.324;2023-04-19T04:26:22;94830.56;;;10.66;100.00
13027;BME280;6580;42.680;23.324;2023-04-19T04:29:08;94828.88;;;10.65;100.00
13027;BME280;6580;42.680;23.324;2023-04-19T04:31:53;94837.88;;;10.72;100.00
13027;BME280;6580;42.680;23.324;2023-04-19T04:34:41;94842.84;;;10.75;100.00
13027;BME280;6580;42.680;23.324;2023-04-19T04:37:27;94837.53;;;10.83;100.00
13027;BME280;6580;42.680;23.324;2023-04-19T04:40:14;94841.88;;;10.68;100.00
13027;BME280;6580;42.680;23.324;2023-04-19T04:43:02;94840.53;;;10.72;100.00
13027;BME280;6580;42.680;23.324;2023-04-19T04:45:48;94833.56;;;10.55;100.00
13027;BME280;6580;42.680;23.324;2023-04-19T04:48:33;94839.38;;;10.74;100.00
13027;BME280;6580;42.680;23.324;2023-04-19T04:51:19;94832.19;;;10.75;100.00
13027;BME280;6580;42.680;23.324;2023-04-19T04:54:04;94837.53;;;10.91;100.00
13027;BME280;6580;42.680;23.324;2023-04-19T04:56:50;94845.47;;;10.99;100.00
13027;BME280;6580;42.680;23.324;2023-04-19T04:59:39;94846.50;;;10.82;100.00
13027;BME280;6580;42.680;23.324;2023-04-19T05:02:25;94841.66;;;10.93;100.00
13027;BME280;6580;42.680;23.324;2023-04-19T05:05:10;94837.94;;;11.18;100.00
13027;BME280;6580;42.680;23.324;2023-04-19T05:07:57;94841.63;;;11.17;100.00
13027;BME280;6580;42.680;23.324;2023-04-19T05:10:44;94841.63;;;11.17;100.00
13027;BME280;6580;42.680;23.324;2023-04-19T05:13:29;94849.44;;;11.10;100.00
13027;BME280;6580;42.680;23.324;2023-04-19T05:16:16;94847.78;;;11.17;100.00
13027;BME280;6580;42.680;23.324;2023-04-19T05:19:01;94843.81;;;11.06;100.00
13027;BME280;6580;42.680;23.324;2023-04-19T05:21:49;94853.09;;;11.25;100.00
13027;BME280;6580;42.680;23.324;2023-04-19T05:24:35;94853.22;;;11.32;100.00
13027;BME280;6580;42.680;23.324;2023-04-19T05:27:21;94849.97;;;11.52;100.00
13027;BME280;6580;42.680;23.324;2023-04-19T05:30:07;94854.13;;;11.09;100.00
13027;BME280;6580;42.680;23.324;2023-04-19T05:32:54;94848.91;;;11.23;100.00
13027;BME280;6580;42.680;23.324;2023-04-19T05:35:40;94848.53;;;11.42;100.00
13027;BME280;6580;42.680;23.324;2023-04-19T05:38:25;94854.34;;;11.53;100.00
13027;BME280;6580;42.680;23.324;2023-04-19T05:41:11;94853.19;;;11.40;100.00
13027;BME280;6580;42.680;23.324;2023-04-19T05:43:56;94843.53;;;11.55;100.00
13027;BME280;6580;42.680;23.324;2023-04-19T05:46:42;94847.69;;;11.41;100.00
13027;BME280;6580;42.680;23.324;2023-04-19T05:49:28;94852.22;;;11.33;100.00
13027;BME280;6580;42.680;23.324;2023-04-19T05:52:14;94854.13;;;11.01;100.00
13027;BME280;6580;42.680;23.324;2023-04-19T05:54:59;94854.38;;;11.29;100.00
13027;BME280;6580;42.680;23.324;2023-04-19T05:57:45;94840.16;;;11.53;100.00
13027;BME280;6580;42.680;23.324;2023-04-19T06:00:31;94847.78;;;11.72;100.00
13027;BME280;6580;42.680;23.324;2023-04-19T06:03:17;94855.78;;;11.72;100.00
13027;BME280;6580;42.680;23.324;2023-04-19T06:06:03;94852.72;;;11.83;100.00
13027;BME280;6580;42.680;23.324;2023-04-19T06:08:49;94858.31;;;11.96;100.00
13027;BME280;6580;42.680;23.324;2023-04-19T06:11:35;94855.94;;;12.31;100.00
13027;BME280;6580;42.680;23.324;2023-04-19T06:14:21;94848.84;;;12.38;100.00
13027;BME280;6580;42.680;23.324;2023-04-19T06:17:06;94849.25;;;12.35;100.00
13027;BME280;6580;42.680;23.324;2023-04-19T06:19:52;94857.84;;;12.45;100.00
13027;BME280;6580;42.680;23.324;2023-04-19T06:22:43;94861.34;;;12.45;100.00
13027;BME280;6580;42.680;23.324;2023-04-19T06:25:29;94853.19;;;12.39;100.00
13027;BME280;6580;42.680;23.324;2023-04-19T06:28:15;94855.81;;;12.24;100.00
13027;BME280;6580;42.680;23.324;2023-04-19T06:31:01;94860.84;;;12.42;100.00
13027;BME280;6580;42.680;23.324;2023-04-19T06:33:47;94851.75;;;12.28;100.00
13027;BME280;6580;42.680;23.324;2023-04-19T06:36:32;94846.66;;;12.64;100.00
13027;BME280;6580;42.680;23.324;2023-04-19T06:39:19;94855.38;;;12.80;100.00
13027;BME280;6580;42.680;23.324;2023-04-19T06:42:04;94857.44;;;13.29;100.00
13027;BME280;6580;42.680;23.324;2023-04-19T06:44:50;94854.09;;;13.13;100.00
13027;BME280;6580;42.680;23.324;2023-04-19T06:47:36;94860.16;;;13.07;99.85
13027;BME280;6580;42.680;23.324;2023-04-19T06:50:21;94858.19;;;13.52;99.55
13027;BME280;6580;42.680;23.324;2023-04-19T06:53:06;94841.13;;;13.82;95.84
13027;BME280;6580;42.680;23.324;2023-04-19T06:55:58;94857.50;;;14.08;93.81
13027;BME280;6580;42.680;23.324;2023-04-19T06:58:45;94849.59;;;13.86;92.44
13027;BME280;6580;42.680;23.324;2023-04-19T07:01:30;94858.91;;;13.75;93.77
13027;BME280;6580;42.680;23.324;2023-04-19T07:04:15;94866.56;;;13.93;91.41
13027;BME280;6580;42.680;23.324;2023-04-19T07:07:02;94856.31;;;13.96;92.22
13027;BME280;6580;42.680;23.324;2023-04-19T07:09:47;94865.94;;;14.40;88.92
13027;BME280;6580;42.680;23.324;2023-04-19T07:12:34;94866.25;;;14.02;90.03
13027;BME280;6580;42.680;23.324;2023-04-19T07:15:20;94865.47;;;14.16;89.57
13027;BME280;6580;42.680;23.324;2023-04-19T07:18:05;94860.75;;;14.18;89.03
13027;BME280;6580;42.680;23.324;2023-04-19T07:20:53;94867.09;;;14.03;91.39
13027;BME280;6580;42.680;23.324;2023-04-19T07:23:38;94862.56;;;14.18;89.75
13027;BME280;6580;42.680;23.324;2023-04-19T07:26:24;94860.91;;;14.17;89.89
13027;BME280;6580;42.680;23.324;2023-04-19T07:29:11;94871.06;;;14.21;89.63
13027;BME280;6580;42.680;23.324;2023-04-19T07:31:56;94866.25;;;14.02;88.66
13027;BME280;6580;42.680;23.324;2023-04-19T07:34:44;94864.13;;;14.26;89.36
13027;BME280;6580;42.680;23.324;2023-04-19T07:37:30;94868.00;;;14.24;87.64
13027;BME280;6580;42.680;23.324;2023-04-19T07:40:15;94873.00;;;14.13;89.14
13027;BME280;6580;42.680;23.324;2023-04-19T07:43:01;94862.31;;;14.13;88.58
13027;BME280;6580;42.680;23.324;2023-04-19T07:45:48;94858.44;;;13.86;91.11
13027;BME280;6580;42.680;23.324;2023-04-19T07:48:33;94874.13;;;13.89;90.11
13027;BME280;6580;42.680;23.324;2023-04-19T07:51:21;94863.78;;;13.86;91.53
13027;BME280;6580;42.680;23.324;2023-04-19T07:54:07;94867.47;;;14.00;90.94
13027;BME280;6580;42.680;23.324;2023-04-19T07:56:53;94853.50;;;14.04;90.44
13027;BME280;6580;42.680;23.324;2023-04-19T07:59:38;94869.41;;;14.20;87.35
13027;BME280;6580;42.680;23.324;2023-04-19T08:02:26;94860.31;;;14.35;87.60
13027;BME280;6580;42.680;23.324;2023-04-19T08:05:12;94863.84;;;14.36;87.65
13027;BME280;6580;42.680;23.324;2023-04-19T08:07:57;94874.66;;;14.28;88.72
13027;BME280;6580;42.680;23.324;2023-04-19T08:10:43;94855.56;;;14.02;89.72
13027;BME280;6580;42.680;23.324;2023-04-19T08:13:29;94849.31;;;14.30;86.65
13027;BME280;6580;42.680;23.324;2023-04-19T08:16:15;94868.50;;;13.84;88.68
13027;BME280;6580;42.680;23.324;2023-04-19T08:19:02;94866.09;;;14.04;87.63
13027;BME280;6580;42.680;23.324;2023-04-19T08:21:47;94868.25;;;13.79;86.50
13027;BME280;6580;42.680;23.324;2023-04-19T08:24:33;94867.78;;;13.61;88.97
13027;BME280;6580;42.680;23.324;2023-04-19T08:27:19;94872.75;;;14.08;88.88
13027;BME280;6580;42.680;23.324;2023-04-19T08:30:05;94865.31;;;14.24;87.33
13027;BME280;6580;42.680;23.324;2023-04-19T08:32:52;94861.16;;;14.57;84.55
13027;BME280;6580;42.680;23.324;2023-04-19T08:35:39;94864.09;;;14.83;82.62
13027;BME280;6580;42.680;23.324;2023-04-19T08:38:24;94859.75;;;14.82;81.95
13027;BME280;6580;42.680;23.324;2023-04-19T08:41:10;94854.34;;;14.75;82.46
13027;BME280;6580;42.680;23.324;2023-04-19T08:43:57;94856.91;;;15.31;77.47
13027;BME280;6580;42.680;23.324;2023-04-19T08:46:46;94853.31;;;15.45;77.58
13027;BME280;6580;42.680;23.324;2023-04-19T08:49:34;94843.97;;;15.69;75.25
13027;BME280;6580;42.680;23.324;2023-04-19T08:52:22;94839.56;;;15.95;70.39
13027;BME280;6580;42.680;23.324;2023-04-19T08:55:09;94838.81;;;16.14;69.43
13027;BME280;6580;42.680;23.324;2023-04-19T08:57:55;94846.47;;;15.77;71.17
13027;BME280;6580;42.680;23.324;2023-04-19T09:00:41;94835.84;;;15.96;71.93
13027;BME280;6580;42.680;23.324;2023-04-19T09:03:27;94846.97;;;15.53;73.10
13027;BME280;6580;42.680;23.324;2023-04-19T09:06:12;94834.81;;;15.97;71.03
13027;BME280;6580;42.680;23.324;2023-04-19T09:09:12;94827.22;;;16.20;71.32
13027;BME280;6580;42.680;23.324;2023-04-19T09:11:58;94830.28;;;16.57;68.44
13027;BME280;6580;42.680;23.324;2023-04-19T09:14:45;94821.97;;;16.39;68.67
13027;BME280;6580;42.680;23.324;2023-04-19T09:17:31;94812.34;;;17.10;64.83
13027;BME280;6580;42.680;23.324;2023-04-19T09:20:16;94812.84;;;17.96;60.87
13027;BME280;6580;42.680;23.324;2023-04-19T09:23:19;94807.09;;;18.42;56.40
13027;BME280;6580;42.680;23.324;2023-04-19T09:26:06;94810.28;;;18.27;57.85
13027;BME280;6580;42.680;23.324;2023-04-19T09:28:55;94809.69;;;18.05;58.78
13027;BME280;6580;42.680;23.324;2023-04-19T09:31:55;94814.84;;;18.63;56.78
13027;BME280;6580;42.680;23.324;2023-04-19T09:34:49;94798.38;;;20.76;51.41
13027;BME280;6580;42.680;23.324;2023-04-19T09:37:36;94802.38;;;20.45;49.42
13027;BME280;6580;42.680;23.324;2023-04-19T09:40:25;94814.59;;;19.75;52.15
13027;BME280;6580;42.680;23.324;2023-04-19T09:43:23;94814.50;;;19.40;50.26
13027;BME280;6580;42.680;23.324;2023-04-19T09:46:29;94801.03;;;20.65;49.00
13027;BME280;6580;42.680;23.324;2023-04-19T09:49:16;94788.22;;;20.90;47.47
13027;BME280;6580;42.680;23.324;2023-04-19T09:52:04;94792.69;;;21.48;44.55
13027;BME280;6580;42.680;23.324;2023-04-19T09:54:49;94776.16;;;22.18;44.64
13027;BME280;6580;42.680;23.324;2023-04-19T09:57:37;94773.31;;;22.25;42.48
13027;BME280;6580;42.680;23.324;2023-04-19T10:00:25;94777.53;;;20.18;47.35
13027;BME280;6580;42.680;23.324;2023-04-19T10:03:11;94776.81;;;20.70;46.29
13027;BME280;6580;42.680;23.324;2023-04-19T10:06:06;94773.41;;;22.41;43.18
13027;BME280;6580;42.680;23.324;2023-04-19T10:08:54;94762.69;;;23.84;39.18
13027;BME280;6580;42.680;23.324;2023-04-19T10:11:43;94734.22;;;24.72;37.62
13027;BME280;6580;42.680;23.324;2023-04-19T10:14:33;94766.53;;;22.11;40.59
13027;BME280;6580;42.680;23.324;2023-04-19T10:17:21;94763.91;;;20.43;46.71
13027;BME280;6580;42.680;23.324;2023-04-19T10:20:12;94760.00;;;22.62;41.70
13027;BME280;6580;42.680;23.324;2023-04-19T10:23:01;94760.22;;;23.50;40.05
13027;BME280;6580;42.680;23.324;2023-04-19T10:25:55;94757.78;;;23.04;39.89
13027;BME280;6580;42.680;23.324;2023-04-19T10:28:44;94754.81;;;23.82;39.06
13027;BME280;6580;42.680;23.324;2023-04-19T10:31:31;94752.16;;;23.71;38.28
13027;BME280;6580;42.680;23.324;2023-04-19T10:34:35;94752.50;;;21.34;41.32
13027;BME280;6580;42.680;23.324;2023-04-19T10:37:25;94752.34;;;23.04;40.41
13027;BME280;6580;42.680;23.324;2023-04-19T10:40:12;94743.03;;;23.00;39.81
13027;BME280;6580;42.680;23.324;2023-04-19T10:43:21;94746.06;;;23.15;38.55
13027;BME280;6580;42.680;23.324;2023-04-19T10:46:07;94726.34;;;24.33;37.39
13027;BME280;6580;42.680;23.324;2023-04-19T10:48:56;94726.66;;;22.95;38.11
13027;BME280;6580;42.680;23.324;2023-04-19T10:51:49;94722.06;;;20.86;41.90
13027;BME280;6580;42.680;23.324;2023-04-19T10:54:37;94727.75;;;21.87;40.38
13027;BME280;6580;42.680;23.324;2023-04-19T10:58:01;94731.16;;;22.45;40.17
13027;BME280;6580;42.680;23.324;2023-04-19T11:00:46;94714.53;;;23.47;38.70
13027;BME280;6580;42.680;23.324;2023-04-19T11:03:51;94700.31;;;23.77;37.24
13027;BME280;6580;42.680;23.324;2023-04-19T11:06:38;94718.19;;;24.11;36.96
13027;BME280;6580;42.680;23.324;2023-04-19T11:09:44;94708.81;;;24.45;36.00
13027;BME280;6580;42.680;23.324;2023-04-19T11:12:31;94708.88;;;23.86;36.10
13027;BME280;6580;42.680;23.324;2023-04-19T11:15:20;94708.94;;;23.91;35.93
13027;BME280;6580;42.680;23.324;2023-04-19T11:18:07;94708.38;;;24.32;35.75
13027;BME280;6580;42.680;23.324;2023-04-19T11:21:04;94722.97;;;22.17;39.00
13027;BME280;6580;42.680;23.324;2023-04-19T11:24:05;94716.94;;;22.99;37.03
13027;BME280;6580;42.680;23.324;2023-04-19T11:26:55;94702.22;;;24.41;34.97
13027;BME280;6580;42.680;23.324;2023-04-19T11:29:43;94693.34;;;25.30;32.53
13027;BME280;6580;42.680;23.324;2023-04-19T11:32:30;94699.25;;;24.43;34.09
13027;BME280;6580;42.680;23.324;2023-04-19T11:35:18;94692.50;;;24.24;34.11
13027;BME280;6580;42.680;23.324;2023-04-19T11:38:04;94706.16;;;23.69;35.30
13027;BME280;6580;42.680;23.324;2023-04-19T11:40:57;94697.53;;;24.37;34.27
13027;BME280;6580;42.680;23.324;2023-04-19T11:43:44;94701.25;;;22.57;35.40
13027;BME280;6580;42.680;23.324;2023-04-19T11:49:06;94692.28;;;21.54;36.91
13027;BME280;6580;42.680;23.324;2023-04-19T11:51:55;94695.34;;;21.81;38.00
13027;BME280;6580;42.680;23.324;2023-04-19T11:54:43;94700.81;;;22.48;36.52
13027;BME280;6580;42.680;23.324;2023-04-19T11:57:30;94677.69;;;24.36;34.26
13027;BME280;6580;42.680;23.324;2023-04-19T12:00:26;94678.06;;;24.02;34.59
13027;BME280;6580;42.680;23.324;2023-04-19T12:03:12;94676.47;;;23.84;34.54
13027;BME280;6580;42.680;23.324;2023-04-19T12:05:59;94681.66;;;23.32;35.12
13027;BME280;6580;42.680;23.324;2023-04-19T12:08:48;94680.25;;;24.48;33.22
13027;BME280;6580;42.680;23.324;2023-04-19T12:11:42;94665.75;;;24.95;30.73
13027;BME280;6580;42.680;23.324;2023-04-19T12:14:28;94677.06;;;23.70;33.41
13027;BME280;6580;42.680;23.324;2023-04-19T12:17:16;94660.94;;;22.65;34.28
13027;BME280;6580;42.680;23.324;2023-04-19T12:20:01;94666.03;;;22.06;35.93
13027;BME280;6580;42.680;23.324;2023-04-19T12:22:47;94675.69;;;22.41;35.59
13027;BME280;6580;42.680;23.324;2023-04-19T12:25:33;94669.47;;;24.10;32.56
13027;BME280;6580;42.680;23.324;2023-04-19T12:28:19;94648.50;;;24.10;33.17
13027;BME280;6580;42.680;23.324;2023-04-19T12:31:04;94659.22;;;24.65;31.78
13027;BME280;6580;42.680;23.324;2023-04-19T12:33:51;94667.56;;;23.35;34.43
13027;BME280;6580;42.680;23.324;2023-04-19T12:36:38;94659.19;;;24.38;33.08
13027;BME280;6580;42.680;23.324;2023-04-19T12:39:26;94651.63;;;23.22;35.19
13027;BME280;6580;42.680;23.324;2023-04-19T12:42:11;94652.50;;;23.44;35.71
13027;BME280;6580;42.680;23.324;2023-04-19T12:44:57;94641.03;;;23.42;35.58
13027;BME280;6580;42.680;23.324;2023-04-19T12:47:43;94662.72;;;22.32;36.94
13027;BME280;6580;42.680;23.324;2023-04-19T12:50:31;94662.06;;;22.53;37.34
13027;BME280;6580;42.680;23.324;2023-04-19T12:53:16;94650.75;;;22.88;36.17
13027;BME280;6580;42.680;23.324;2023-04-19T12:56:03;94660.94;;;22.09;38.21
13027;BME280;6580;42.680;23.324;2023-04-19T12:58:50;94657.78;;;21.39;39.60
13027;BME280;6580;42.680;23.324;2023-04-19T13:01:35;94676.88;;;20.57;41.14
13027;BME280;6580;42.680;23.324;2023-04-19T13:04:21;94686.63;;;20.47;42.70
13027;BME280;6580;42.680;23.324;2023-04-19T13:07:09;94709.28;;;19.02;47.67
13027;BME280;6580;42.680;23.324;2023-04-19T13:09:55;94709.53;;;18.08;47.84
13027;BME280;6580;42.680;23.324;2023-04-19T13:12:40;94712.28;;;17.51;48.89
13027;BME280;6580;42.680;23.324;2023-04-19T13:15:25;94726.47;;;16.95;51.54
13027;BME280;6580;42.680;23.324;2023-04-19T13:18:13;94734.31;;;16.84;55.91
13027;BME280;6580;42.680;23.324;2023-04-19T13:20:59;94724.34;;;17.17;55.90
13027;BME280;6580;42.680;23.324;2023-04-19T13:23:47;94740.13;;;16.81;57.92
13027;BME280;6580;42.680;23.324;2023-04-19T13:26:32;94733.44;;;16.31;57.76
13027;BME280;6580;42.680;23.324;2023-04-19T13:29:18;94719.75;;;16.20;57.86
13027;BME280;6580;42.680;23.324;2023-04-19T13:32:05;94731.22;;;16.41;58.82
13027;BME280;6580;42.680;23.324;2023-04-19T13:34:55;94719.44;;;16.62;60.46
13027;BME280;6580;42.680;23.324;2023-04-19T13:37:40;94719.00;;;16.78;61.85
13027;BME280;6580;42.680;23.324;2023-04-19T13:40:28;94714.84;;;16.95;62.41
13027;BME280;6580;42.680;23.324;2023-04-19T13:43:14;94715.72;;;16.89;69.90
13027;BME280;6580;42.680;23.324;2023-04-19T13:45:59;94714.00;;;17.14;82.41
13027;BME280;6580;42.680;23.324;2023-04-19T13:48:45;94710.72;;;16.99;73.81
13027;BME280;6580;42.680;23.324;2023-04-19T13:51:30;94715.88;;;16.94;73.55
13027;BME280;6580;42.680;23.324;2023-04-19T13:54:15;94706.78;;;16.88;71.46
13027;BME280;6580;42.680;23.324;2023-04-19T13:57:03;94706.56;;;17.16;68.20
13027;BME280;6580;42.680;23.324;2023-04-19T13:59:48;94719.75;;;16.20;68.67
13027;BME280;6580;42.680;23.324;2023-04-19T14:02:33;94717.72;;;16.28;68.33
13027;BME280;6580;42.680;23.324;2023-04-19T14:05:19;94704.41;;;15.88;68.08
13027;BME280;6580;42.680;23.324;2023-04-19T14:08:05;94715.00;;;16.16;69.94
13027;BME280;6580;42.680;23.324;2023-04-19T14:10:50;94716.63;;;15.97;70.38
13027;BME280;6580;42.680;23.324;2023-04-19T14:13:38;94707.97;;;16.15;68.45
13027;BME280;6580;42.680;23.324;2023-04-19T14:16:23;94709.63;;;16.03;68.91
13027;BME280;6580;42.680;23.324;2023-04-19T14:19:09;94708.41;;;16.25;67.34
13027;BME280;6580;42.680;23.324;2023-04-19T14:21:55;94710.53;;;16.87;64.07
13027;BME280;6580;42.680;23.324;2023-04-19T14:24:40;94713.84;;;16.89;66.17
13027;BME280;6580;42.680;23.324;2023-04-19T14:27:26;94708.25;;;16.91;66.86
13027;BME280;6580;42.680;23.324;2023-04-19T14:30:13;94711.16;;;16.89;65.20
13027;BME280;6580;42.680;23.324;2023-04-19T14:32:59;94710.13;;;16.51;67.02
13027;BME280;6580;42.680;23.324;2023-04-19T14:35:44;94705.97;;;16.62;66.56
13027;BME280;6580;42.680;23.324;2023-04-19T14:38:32;94701.00;;;16.85;63.86
13027;BME280;6580;42.680;23.324;2023-04-19T14:41:18;94706.63;;;16.57;65.25
13027;BME280;6580;42.680;23.324;2023-04-19T14:44:03;94701.66;;;16.48;66.13